createdAt,value
2023-11-09T00:02:06.482Z,100005.92
2023-11-09T00:04:40.959Z,100003.39
2023-11-09T00:07:13.432Z,100005.48
2023-11-09T00:09:47.563Z,100007.14
2023-11-09T00:12:21.421Z,100007.88
2023-11-09T00:14:56.808Z,100007.84
2023-11-09T00:17:32.240Z,100008.46
2023-11-09T00:20:07.997Z,100006.85
2023-11-09T00:22:40.574Z,100012.38
2023-11-09T00:25:14.247Z,100010.36
2023-11-09T00:27:46.080Z,100009.90
2023-11-09T00:30:18.976Z,100010.61
2023-11-09T00:32:54.135Z,100012.84
2023-11-09T00:35:25.978Z,100015.83
2023-11-09T00:38:01.201Z,100014.69
2023-11-09T00:40:33.465Z,100018.23
2023-11-09T00:43:05.702Z,100009.66
2023-11-09T00:45:40.101Z,100012.80
2023-11-09T00:48:12.026Z,100012.63
2023-11-09T00:50:44.633Z,100013.34
2023-11-09T00:53:17.265Z,100008.02
2023-11-09T00:55:51.846Z,100006.75
2023-11-09T00:58:25.035Z,100012.77
2023-11-09T01:00:57.112Z,100012.02
2023-11-09T01:03:29.275Z,100011.08
2023-11-09T01:06:06.750Z,100013.55
2023-11-09T01:08:40.176Z,100012.27
2023-11-09T01:11:13.650Z,100009.56
2023-11-09T01:13:48.675Z,100008.60
2023-11-09T01:16:23.653Z,100005.13
2023-11-09T01:18:57.721Z,100000.01
2023-11-09T01:21:32.844Z,99998.29
2023-11-09T01:24:09.554Z,99998.59
2023-11-09T01:26:42.523Z,99994.45
2023-11-09T01:29:19.478Z,99998.86
2023-11-09T01:31:56.357Z,99994.16
2023-11-09T01:34:31.918Z,100001.15
2023-11-09T01:37:05.471Z,99996.75
2023-11-09T01:39:40.469Z,99994.80
2023-11-09T01:42:18.543Z,99995.33
2023-11-09T01:44:51.441Z,99991.70
2023-11-09T01:47:29.288Z,99995.98
2023-11-09T01:50:11.447Z,99992.73
2023-11-09T01:52:44.929Z,99995.36
2023-11-09T01:58:38.104Z,99993.07
2023-11-09T02:01:23.124Z,99990.36
2023-11-09T02:03:55.907Z,100002.98
2023-11-09T02:06:28.142Z,99994.98
2023-11-09T02:09:00.882Z,99998.71
2023-11-09T02:11:32.368Z,99999.77
2023-11-09T02:14:08.433Z,100000.32
2023-11-09T02:16:39.987Z,99996.23
2023-11-09T02:19:13.317Z,100000.02
2023-11-09T02:21:47.371Z,100000.80
2023-11-09T02:24:20.606Z,100000.87
2023-11-09T02:26:52.442Z,99995.63
2023-11-09T02:29:26.600Z,100000.30
2023-11-09T02:31:58.922Z,100000.67
2023-11-09T02:34:33.120Z,100001.15
2023-11-09T02:37:05.702Z,100009.06
2023-11-09T02:39:37.448Z,100008.34
2023-11-09T02:42:12.526Z,100006.33
2023-11-09T02:44:44.722Z,100008.35
2023-11-09T02:47:16.649Z,100001.65
2023-11-09T02:49:48.133Z,100002.81
2023-11-09T02:52:24.385Z,100001.07
2023-11-09T02:55:09.471Z,100001.94
2023-11-09T02:57:39.485Z,99999.14
2023-11-09T03:00:14.155Z,100002.41
2023-11-09T03:02:45.823Z,100001.02
2023-11-09T03:05:27.933Z,100004.06
2023-11-09T03:07:59.512Z,100006.02
2023-11-09T03:10:31.704Z,100010.21
2023-11-09T03:13:06.092Z,100014.41
2023-11-09T03:15:38.332Z,100017.83
2023-11-09T03:18:12.746Z,100021.55
2023-11-09T03:20:45.641Z,100016.39
2023-11-09T03:23:18.321Z,100013.98
2023-11-09T03:25:50.029Z,100016.05
2023-11-09T03:28:22.473Z,100016.09
2023-11-09T03:30:53.763Z,100013.64
2023-11-09T03:33:25.457Z,100011.27
2023-11-09T03:35:57.448Z,100011.45
2023-11-09T03:38:29.655Z,100010.77
2023-11-09T03:41:01.866Z,100015.42
2023-11-09T03:43:34.544Z,100013.46
2023-11-09T03:46:06.352Z,100016.85
2023-11-09T03:48:37.994Z,100015.89
2023-11-09T03:51:11.283Z,100016.40
2023-11-09T03:53:43.311Z,100011.80
2023-11-09T03:56:15.017Z,100012.67
2023-11-09T03:58:49.280Z,100011.13
2023-11-09T04:01:21.034Z,100011.77
2023-11-09T04:03:53.181Z,100009.11
2023-11-09T04:06:25.209Z,100007.85
2023-11-09T04:08:57.506Z,100004.86
2023-11-09T04:11:29.226Z,99999.63
2023-11-09T04:14:01.110Z,99998.17
2023-11-09T04:16:33.316Z,99999.15
2023-11-09T04:19:05.075Z,99999.54
2023-11-09T04:21:36.688Z,99996.63
2023-11-09T04:24:10.379Z,99996.30
2023-11-09T04:26:43.829Z,99999.27
2023-11-09T04:29:16.946Z,99994.79
2023-11-09T04:31:50.078Z,99990.64
2023-11-09T04:34:22.607Z,99986.59
2023-11-09T04:36:54.494Z,99991.08
2023-11-09T04:39:31.755Z,99989.77
2023-11-09T04:42:05.990Z,99985.48
2023-11-09T04:44:38.552Z,99981.54
2023-11-09T04:47:12.921Z,99980.47
2023-11-09T04:49:48.562Z,99983.48
2023-11-09T04:52:20.876Z,99986.86
2023-11-09T04:54:58.972Z,99982.71
2023-11-09T04:57:49.921Z,99982.27
2023-11-09T05:00:39.092Z,99979.16
2023-11-09T05:03:31.232Z,99976.42
2023-11-09T05:06:27.271Z,99976.41
2023-11-09T05:08:59.625Z,99974.49
2023-11-09T05:11:31.772Z,99974.14
2023-11-09T05:14:04.245Z,99973.66
2023-11-09T05:16:38.781Z,99972.36
2023-11-09T05:19:10.577Z,99974.15
2023-11-09T05:21:42.737Z,99976.92
2023-11-09T05:24:14.600Z,99972.23
2023-11-09T05:26:47.606Z,99971.42
2023-11-09T05:29:19.889Z,99976.62
2023-11-09T05:31:52.766Z,99978.22
2023-11-09T05:34:24.718Z,99981.36
2023-11-09T05:36:59.283Z,99979.67
2023-11-09T05:39:31.416Z,99975.80
2023-11-09T05:42:04.023Z,99980.40
2023-11-09T05:44:35.450Z,99978.14
2023-11-09T05:47:07.807Z,99976.47
2023-11-09T05:49:39.527Z,99968.81
2023-11-09T05:52:12.191Z,99968.95
2023-11-09T05:54:44.031Z,99968.25
2023-11-09T05:57:15.790Z,99967.14
2023-11-09T05:59:47.179Z,99956.13
2023-11-09T06:02:18.775Z,99958.61
2023-11-09T06:04:50.735Z,99961.65
2023-11-09T06:07:23.060Z,99960.88
2023-11-09T06:09:54.835Z,99965.98
2023-11-09T06:12:29.435Z,99965.06
2023-11-09T06:15:01.937Z,99967.40
2023-11-09T06:17:33.948Z,99965.33
2023-11-09T06:20:08.271Z,99967.89
2023-11-09T06:22:40.442Z,99972.27
2023-11-09T06:25:14.128Z,99973.83
2023-11-09T06:27:45.606Z,99974.66
2023-11-09T06:30:17.381Z,99979.02
2023-11-09T06:32:49.996Z,99979.69
2023-11-09T06:35:22.361Z,99974.52
2023-11-09T06:37:54.251Z,99968.30
2023-11-09T06:40:28.005Z,99963.34
2023-11-09T06:42:59.851Z,99963.63
2023-11-09T06:45:34.171Z,99965.77
2023-11-09T06:48:05.952Z,99971.91
2023-11-09T06:50:37.666Z,99975.80
2023-11-09T06:53:09.962Z,99967.11
2023-11-09T06:55:42.005Z,99965.02
2023-11-09T06:58:13.609Z,99966.04
2023-11-09T07:00:47.110Z,99968.05
2023-11-09T07:03:19.603Z,99966.55
2023-11-09T07:05:54.437Z,99967.75
2023-11-09T07:08:30.083Z,99964.27
2023-11-09T07:11:02.911Z,99963.67
2023-11-09T07:13:36.016Z,99963.70
2023-11-09T07:16:15.104Z,99965.77
2023-11-09T07:18:47.580Z,99961.27
2023-11-09T07:21:29.731Z,99961.64
2023-11-09T07:24:08.174Z,99963.17
2023-11-09T07:26:40.463Z,99963.16
2023-11-09T07:29:15.062Z,99960.48
2023-11-09T07:31:47.171Z,99968.77
2023-11-09T07:34:23.505Z,99969.20
2023-11-09T07:36:59.221Z,99967.46
2023-11-09T07:39:47.416Z,99964.80
2023-11-09T07:42:19.431Z,99961.79
2023-11-09T07:44:52.019Z,99957.03
2023-11-09T07:47:23.988Z,99956.64
2023-11-09T07:49:55.952Z,99963.23
2023-11-09T07:52:27.792Z,99960.71
2023-11-09T07:54:59.755Z,99952.39
2023-11-09T07:57:31.774Z,99954.25
2023-11-09T08:00:06.327Z,99955.03
2023-11-09T08:02:41.209Z,99955.00
2023-11-09T08:05:15.970Z,99955.66
2023-11-09T08:07:47.848Z,99960.52
2023-11-09T08:10:19.797Z,99952.60
2023-11-09T08:12:51.507Z,99953.46
2023-11-09T08:15:23.951Z,99955.34
2023-11-09T08:17:55.675Z,99955.13
2023-11-09T08:20:32.436Z,99951.26
2023-11-09T08:23:04.259Z,99947.42
2023-11-09T08:25:36.024Z,99945.58
2023-11-09T08:28:10.018Z,99947.90
2023-11-09T08:30:45.448Z,99946.86
2023-11-09T08:33:23.493Z,99943.01
2023-11-09T08:35:55.987Z,99940.13
2023-11-09T08:38:29.656Z,99938.54
2023-11-09T08:41:02.380Z,99940.60
2023-11-09T08:43:34.967Z,99941.22
2023-11-09T08:46:07.000Z,99941.59
2023-11-09T08:48:44.694Z,99938.96
2023-11-09T08:51:16.605Z,99933.73
2023-11-09T08:53:51.091Z,99926.64
2023-11-09T08:56:25.773Z,99923.48
2023-11-09T08:58:57.524Z,99925.45
2023-11-09T09:01:32.817Z,99917.95
2023-11-09T09:04:05.998Z,99916.83
2023-11-09T09:06:38.923Z,99919.02
2023-11-09T09:09:16.490Z,99918.03
2023-11-09T09:11:48.332Z,99911.80
2023-11-09T09:14:19.978Z,99905.95
2023-11-09T09:16:51.853Z,99908.76
2023-11-09T09:19:26.128Z,99906.08
2023-11-09T09:21:58.184Z,99906.79
2023-11-09T09:24:33.012Z,99903.52
2023-11-09T09:27:16.488Z,99890.02
2023-11-09T09:30:00.767Z,99888.41
2023-11-09T09:32:47.949Z,99881.80
2023-11-09T09:38:52.553Z,99869.82
2023-11-09T09:41:35.517Z,99865.78
2023-11-09T09:44:10.461Z,99864.98
2023-11-09T09:46:48.740Z,99859.54
2023-11-09T09:49:27.291Z,99854.69
2023-11-09T09:52:06.177Z,99859.15
2023-11-09T09:54:44.770Z,99861.42
2023-11-09T09:57:17.255Z,99847.37
2023-11-09T09:59:49.618Z,99855.54
2023-11-09T10:02:21.798Z,99852.26
2023-11-09T10:04:57.874Z,99846.73
2023-11-09T10:07:29.434Z,99847.70
2023-11-09T10:10:01.004Z,99844.23
2023-11-09T10:12:32.772Z,99841.85
2023-11-09T10:15:05.921Z,99841.40
2023-11-09T10:17:37.524Z,99837.02
2023-11-09T10:20:15.046Z,99837.05
2023-11-09T10:22:48.314Z,99836.20
2023-11-09T10:25:29.041Z,99836.96
2023-11-09T10:28:41.379Z,99833.27
2023-11-09T10:31:32.076Z,99826.02
2023-11-09T10:34:06.522Z,99821.27
2023-11-09T10:36:38.955Z,99821.51
2023-11-09T10:39:19.603Z,99816.88
2023-11-09T10:41:57.620Z,99816.10
2023-11-09T10:44:33.137Z,99809.20
2023-11-09T10:47:09.073Z,99804.91
2023-11-09T10:49:46.255Z,99803.00
2023-11-09T10:52:23.526Z,99794.90
2023-11-09T10:54:57.327Z,99797.83
2023-11-09T10:57:31.894Z,99794.80
2023-11-09T11:00:02.915Z,99790.61
2023-11-09T11:02:40.896Z,99790.38
2023-11-09T11:05:15.563Z,99791.88
2023-11-09T11:07:49.337Z,99790.39
2023-11-09T11:10:22.037Z,99784.91
2023-11-09T11:12:55.444Z,99790.19
2023-11-09T11:15:40.989Z,99782.70
2023-11-09T11:18:26.179Z,99776.13
2023-11-09T11:21:23.041Z,99774.77
2023-11-09T11:24:27.395Z,99771.98
2023-11-09T11:27:18.798Z,99768.48
2023-11-09T11:29:55.004Z,99758.48
2023-11-09T11:32:35.331Z,99760.84
2023-11-09T11:35:08.587Z,99763.02
2023-11-09T11:37:41.667Z,99756.83
2023-11-09T11:40:18.768Z,99758.16
2023-11-09T11:43:01.781Z,99754.66
2023-11-09T11:45:33.553Z,99751.80
2023-11-09T11:48:06.656Z,99745.91
2023-11-09T11:50:40.091Z,99752.45
2023-11-09T11:53:26.691Z,99749.14
2023-11-09T11:56:12.067Z,99749.11
2023-11-09T11:58:54.150Z,99749.23
2023-11-09T12:01:33.414Z,99750.59
2023-11-09T12:04:08.309Z,99743.96
2023-11-09T12:06:43.986Z,99739.95
2023-11-09T12:09:17.090Z,99740.89
2023-11-09T12:11:51.466Z,99741.53
2023-11-09T12:14:30.460Z,99742.77
2023-11-09T12:17:05.217Z,99732.40
2023-11-09T12:19:47.057Z,99734.05
2023-11-09T12:22:19.280Z,99724.91
2023-11-09T12:25:02.012Z,99726.00
2023-11-09T12:27:37.971Z,99724.69
2023-11-09T12:30:13.553Z,99715.84
2023-11-09T12:32:45.230Z,99718.83
2023-11-09T12:35:20.253Z,99713.59
2023-11-09T12:38:02.915Z,99711.96
2023-11-09T12:40:34.457Z,99709.23
2023-11-09T12:43:09.038Z,99709.77
2023-11-09T12:45:43.072Z,99701.62
2023-11-09T12:48:15.781Z,99695.02
2023-11-09T12:50:48.532Z,99693.11
2023-11-09T12:53:28.812Z,99694.43
2023-11-09T12:56:00.426Z,99685.33
2023-11-09T12:58:35.985Z,99685.89
2023-11-09T13:01:07.997Z,99684.42
2023-11-09T13:03:39.399Z,99680.58
2023-11-09T13:06:14.281Z,99679.57
2023-11-09T13:08:54.237Z,99675.31
2023-11-09T13:11:45.219Z,99674.61
2023-11-09T13:14:19.029Z,99674.02
2023-11-09T13:16:52.137Z,99673.05
2023-11-09T13:19:28.268Z,99670.28
2023-11-09T13:21:59.896Z,99668.61
2023-11-09T13:24:34.175Z,99664.36
2023-11-09T13:27:13.527Z,99662.83
2023-11-09T13:29:47.040Z,99662.45
2023-11-09T13:32:28.029Z,99654.39
2023-11-09T13:35:21.128Z,99658.73
2023-11-09T13:37:59.521Z,99660.18
2023-11-09T13:40:37.454Z,99659.67
2023-11-09T13:43:12.434Z,99654.58
2023-11-09T13:45:48.491Z,99653.88
2023-11-09T13:48:25.434Z,99645.34
2023-11-09T13:50:59.963Z,99639.59
2023-11-09T13:53:47.995Z,99645.04
2023-11-09T13:56:36.547Z,99647.28
2023-11-09T13:59:14.312Z,99645.81
2023-11-09T14:01:51.869Z,99645.98
2023-11-09T14:04:24.787Z,99646.11
2023-11-09T14:06:59.162Z,99644.73
2023-11-09T14:09:35.959Z,99640.19
2023-11-09T14:12:10.981Z,99640.45
2023-11-09T14:14:46.682Z,99638.81
2023-11-09T14:17:30.671Z,99639.24
2023-11-09T14:20:11.018Z,99641.27
2023-11-09T14:22:42.317Z,99648.18
2023-11-09T14:25:19.112Z,99649.17
2023-11-09T14:27:51.061Z,99648.23
2023-11-09T14:30:30.095Z,99642.16
2023-11-09T14:33:04.165Z,99637.00
2023-11-09T14:35:37.967Z,99636.77
2023-11-09T14:38:09.520Z,99631.98
2023-11-09T14:40:48.568Z,99630.85
2023-11-09T14:43:21.611Z,99628.01
2023-11-09T14:45:54.015Z,99625.30
2023-11-09T14:48:29.925Z,99622.83
2023-11-09T14:51:01.585Z,99626.52
2023-11-09T14:53:37.003Z,99624.76
2023-11-09T14:56:11.983Z,99623.95
2023-11-09T14:58:46.406Z,99624.39
2023-11-09T15:01:23.715Z,99625.08
2023-11-09T15:03:59.731Z,99624.41
2023-11-09T15:06:33.357Z,99621.23
2023-11-09T15:09:18.910Z,99622.62
2023-11-09T15:12:06.334Z,99622.02
2023-11-09T15:14:40.030Z,99621.48
2023-11-09T15:17:11.482Z,99617.75
2023-11-09T15:19:43.960Z,99613.23
2023-11-09T15:22:18.131Z,99609.66
2023-11-09T15:24:50.048Z,99606.52
2023-11-09T15:27:21.587Z,99607.48
2023-11-09T15:29:53.367Z,99603.29
2023-11-09T15:32:28.953Z,99604.02
2023-11-09T15:35:02.140Z,99606.27
2023-11-09T15:37:33.674Z,99607.66
2023-11-09T15:40:42.103Z,99603.79
2023-11-09T15:43:03.919Z,99602.98
2023-11-09T15:45:35.619Z,99599.94
2023-11-09T15:48:09.523Z,99600.80
2023-11-09T15:50:41.587Z,99600.95
2023-11-09T15:53:13.221Z,99601.66
2023-11-09T15:55:44.909Z,99597.63
2023-11-09T15:58:17.860Z,99593.68
2023-11-09T16:00:51.993Z,99589.91
2023-11-09T16:03:26.054Z,99590.70
2023-11-09T16:05:58.746Z,99592.42
2023-11-09T16:08:31.984Z,99588.38
2023-11-09T16:11:04.911Z,99591.38
2023-11-09T16:13:36.968Z,99593.38
2023-11-09T16:16:11.792Z,99591.31
2023-11-09T16:18:43.563Z,99588.27
2023-11-09T16:21:15.295Z,99585.30
2023-11-09T16:23:47.141Z,99586.91
2023-11-09T16:26:19.378Z,99585.00
2023-11-09T16:28:51.618Z,99586.73
2023-11-09T16:31:24.395Z,99589.82
2023-11-09T16:33:56.017Z,99584.95
2023-11-09T16:36:28.099Z,99588.13
2023-11-09T16:39:00.383Z,99582.77
2023-11-09T16:41:32.549Z,99580.75
2023-11-09T16:44:04.205Z,99583.27
2023-11-09T16:46:36.096Z,99579.94
2023-11-09T16:49:12.625Z,99577.55
2023-11-09T16:51:44.356Z,99575.24
2023-11-09T16:54:16.959Z,99569.75
2023-11-09T16:56:48.895Z,99566.75
2023-11-09T16:59:20.476Z,99565.48
2023-11-09T17:01:52.388Z,99565.51
2023-11-09T17:04:24.423Z,99561.80
2023-11-09T17:06:56.378Z,99559.29
2023-11-09T17:09:29.221Z,99562.23
2023-11-09T17:12:00.930Z,99560.11
2023-11-09T17:14:33.107Z,99559.14
2023-11-09T17:17:05.022Z,99558.37
2023-11-09T17:19:36.703Z,99556.73
2023-11-09T17:22:09.630Z,99559.25
2023-11-09T17:24:41.552Z,99556.23
2023-11-09T17:27:13.886Z,99556.51
2023-11-09T17:29:45.820Z,99551.42
2023-11-09T17:32:17.605Z,99551.94
2023-11-09T17:34:50.685Z,99550.60
2023-11-09T17:37:23.802Z,99548.02
2023-11-09T17:39:55.857Z,99547.99
2023-11-09T17:42:29.831Z,99544.41
2023-11-09T17:45:02.777Z,99541.74
2023-11-09T17:47:35.440Z,99537.60
2023-11-09T17:50:10.396Z,99542.77
2023-11-09T17:52:49.316Z,99540.41
2023-11-09T17:55:22.940Z,99541.14
2023-11-09T17:57:57.916Z,99540.92
2023-11-09T18:00:30.048Z,99539.33
2023-11-09T18:03:04.256Z,99537.90
2023-11-09T18:05:38.716Z,99540.59
2023-11-09T18:08:13.041Z,99538.92
2023-11-09T18:10:52.447Z,99538.56
2023-11-09T18:13:25.516Z,99536.01
2023-11-09T18:16:02.225Z,99535.88
2023-11-09T18:18:39.006Z,99533.14
2023-11-09T18:21:14.515Z,99526.29
2023-11-09T18:23:53.541Z,99521.84
2023-11-09T18:26:26.661Z,99530.48
2023-11-09T18:29:00.728Z,99526.84
2023-11-09T18:31:36.232Z,99518.17
2023-11-09T18:34:10.375Z,99511.43
2023-11-09T18:36:43.083Z,99517.63
2023-11-09T18:39:15.828Z,99512.66
2023-11-09T18:42:04.314Z,99513.69
2023-11-09T18:44:37.323Z,99519.43
2023-11-09T18:47:12.812Z,99518.41
2023-11-09T18:52:39.186Z,99511.70
2023-11-09T18:55:21.346Z,99509.41
2023-11-09T18:57:56.957Z,99508.17
2023-11-09T19:00:35.918Z,99510.16
2023-11-09T19:05:58.151Z,99499.88
2023-11-09T19:08:36.426Z,99499.91
2023-11-09T19:11:43.652Z,99496.03
2023-11-09T19:14:28.133Z,99488.87
2023-11-09T19:17:10.600Z,99486.19
2023-11-09T19:19:47.710Z,99482.34
2023-11-09T19:23:04.948Z,99479.84
2023-11-09T19:25:47.923Z,99478.22
2023-11-09T19:28:33.143Z,99478.29
2023-11-09T19:31:21.763Z,99473.45
2023-11-09T19:34:20.710Z,99473.00
2023-11-09T19:37:07.299Z,99470.77
2023-11-09T19:40:02.448Z,99465.73
2023-11-09T19:43:25.284Z,99468.80
2023-11-09T19:46:22.315Z,99463.00
2023-11-09T19:53:27.938Z,99465.20
2023-11-09T19:59:54.301Z,99450.72
2023-11-09T20:03:18.517Z,99451.22
2023-11-09T20:06:15.666Z,99448.23
2023-11-09T20:08:52.352Z,99443.94
2023-11-09T20:12:27.858Z,99446.56
2023-11-09T20:15:04.249Z,99441.89
2023-11-09T20:17:45.722Z,99445.78
2023-11-09T20:21:17.742Z,99442.05
2023-11-09T20:23:52.236Z,99439.19
2023-11-09T20:26:33.845Z,99439.21
2023-11-09T20:29:10.154Z,99434.39
2023-11-09T20:31:47.977Z,99433.89
2023-11-09T20:34:29.479Z,99432.71
2023-11-09T20:37:05.325Z,99432.04
2023-11-09T20:39:44.445Z,99433.97
2023-11-09T20:42:21.629Z,99427.06
2023-11-09T20:44:56.713Z,99427.73
2023-11-09T20:47:49.188Z,99430.61
2023-11-09T20:50:26.378Z,99420.98
2023-11-09T20:53:03.490Z,99420.72
2023-11-09T20:55:38.309Z,99417.04
2023-11-09T20:58:12.699Z,99423.79
2023-11-09T21:00:46.146Z,99424.92
2023-11-09T21:03:18.804Z,99421.55
2023-11-09T21:05:58.416Z,99421.09
2023-11-09T21:08:30.181Z,99413.59
2023-11-09T21:11:02.392Z,99410.96
2023-11-09T21:13:38.101Z,99411.08
2023-11-09T21:16:15.312Z,99408.42
2023-11-09T21:18:48.330Z,99405.09
2023-11-09T21:21:20.980Z,99404.58
2023-11-09T21:28:07.863Z,99395.37
2023-11-09T21:34:59.438Z,99393.81
2023-11-09T21:38:31.549Z,99395.91
2023-11-09T21:41:05.579Z,99400.46
2023-11-09T21:43:38.472Z,99399.39
2023-11-09T21:46:14.629Z,99394.61
2023-11-09T21:48:49.244Z,99392.83
2023-11-09T21:51:21.156Z,99395.52
2023-11-09T21:53:52.966Z,99387.66
2023-11-09T21:56:24.566Z,99390.20
2023-11-09T21:58:56.457Z,99389.67
2023-11-09T22:01:31.071Z,99384.65
2023-11-09T22:04:04.123Z,99382.86
2023-11-09T22:06:37.265Z,99381.63
2023-11-09T22:09:13.425Z,99381.64
2023-11-09T22:11:45.959Z,99379.75
2023-11-09T22:14:18.148Z,99381.03
2023-11-09T22:16:50.260Z,99381.81
2023-11-09T22:19:22.408Z,99378.58
2023-11-09T22:22:04.814Z,99380.15
2023-11-09T22:24:37.351Z,99377.73
2023-11-09T22:27:09.503Z,99376.60
2023-11-09T22:29:45.119Z,99381.12
2023-11-09T22:33:03.307Z,99373.80
2023-11-09T22:39:09.456Z,99378.41
2023-11-09T22:43:17.642Z,99381.50
2023-11-09T22:49:04.686Z,99379.27
2023-11-09T22:52:50.261Z,99388.19
2023-11-09T22:55:46.335Z,99390.05
2023-11-09T22:58:41.958Z,99384.92
2023-11-09T23:01:28.783Z,99383.65
2023-11-09T23:07:47.481Z,99396.77
2023-11-09T23:10:33.978Z,99399.72
2023-11-09T23:13:08.336Z,99390.97
2023-11-09T23:15:40.447Z,99394.30
2023-11-09T23:18:34.384Z,99393.04
2023-11-09T23:21:09.207Z,99385.14
2023-11-09T23:23:42.276Z,99384.73
2023-11-09T23:26:20.083Z,99382.30
2023-11-09T23:28:53.184Z,99384.20
2023-11-09T23:31:34.538Z,99387.66
2023-11-09T23:34:43.193Z,99384.87
2023-11-09T23:37:15.181Z,99382.63
2023-11-09T23:40:04.206Z,99377.83
2023-11-09T23:42:43.820Z,99383.02
2023-11-09T23:45:20.145Z,99380.04
2023-11-09T23:47:52.405Z,99389.29
2023-11-09T23:50:33.342Z,99380.82
2023-11-09T23:53:13.108Z,99381.72
2023-11-09T23:55:58.224Z,99384.92
2023-11-09T23:58:41.494Z,99373.63
